Time;durP1;ratioP1;P1;durP2;ratioP2;P2;SDS_P1;SDS_P2;PMS_P1;PMS_P2;Temp;Humidity;BMP_temperature;BMP_pressure;BME280_temperature;BME280_humidity;BME280_pressure;Samples;Min_cycle;Max_cycle;Signal;HPM_P1;HPM_P2
2023/10/10 00:00:55;;;;;;;25.13;21.45;;;;;;;12.99;100.00;101908.72;5039623;28;20074;-70
2023/10/10 00:03:21;;;;;;;26.33;22.63;;;;;;;12.92;100.00;101897.47;5044247;28;20075;-71
2023/10/10 00:05:47;;;;;;;25.63;22.92;;;;;;;12.95;100.00;101905.31;5038951;28;20491;-71
2023/10/10 00:08:14;;;;;;;25.77;21.80;;;;;;;12.93;100.00;101909.88;5043145;28;20068;-71
2023/10/10 00:10:50;;;;;;;26.98;23.08;;;;;;;12.92;100.00;101907.28;5041182;28;20029;-71
2023/10/10 00:13:19;;;;;;;25.80;22.98;;;;;;;12.89;100.00;101900.25;5043262;28;20523;-71
2023/10/10 00:15:50;;;;;;;27.90;23.02;;;;;;;12.93;100.00;101899.19;5039928;28;20087;-70
2023/10/10 00:18:18;;;;;;;27.95;22.33;;;;;;;12.91;100.00;101906.41;5041820;28;20037;-69
2023/10/10 00:20:47;;;;;;;28.08;23.27;;;;;;;12.82;100.00;101898.78;5036508;28;20315;-69
2023/10/10 00:23:16;;;;;;;28.65;22.75;;;;;;;12.89;100.00;101899.41;5039429;28;20033;-69
2023/10/10 00:25:47;;;;;;;28.05;24.88;;;;;;;12.82;100.00;101901.47;5043383;28;20033;-70
2023/10/10 00:28:18;;;;;;;27.67;24.27;;;;;;;12.82;100.00;101903.25;5036279;28;20414;-71
2023/10/10 00:30:47;;;;;;;27.80;23.48;;;;;;;12.79;100.00;101898.94;5041613;28;20021;-72
2023/10/10 00:33:16;;;;;;;26.52;23.60;;;;;;;12.76;100.00;101891.06;5041484;28;20477;-70
2023/10/10 00:35:44;;;;;;;26.25;23.30;;;;;;;12.77;100.00;101900.78;5039107;28;20025;-71
2023/10/10 00:38:22;;;;;;;27.02;23.30;;;;;;;12.77;100.00;101891.91;5036653;28;20040;-71
2023/10/10 00:40:48;;;;;;;28.67;24.55;;;;;;;12.74;100.00;101892.03;5040114;28;20032;-69
2023/10/10 00:43:17;;;;;;;27.13;23.60;;;;;;;12.72;100.00;101894.78;5044468;28;20028;-70
2023/10/10 00:45:44;;;;;;;30.02;24.85;;;;;;;12.73;100.00;101901.00;5042199;28;20467;-71
2023/10/10 00:48:10;;;;;;;28.77;25.00;;;;;;;12.70;100.00;101894.84;5037739;28;20021;-71
2023/10/10 00:50:37;;;;;;;30.00;24.85;;;;;;;12.71;100.00;101888.59;5031009;28;20083;-69
2023/10/10 00:53:11;;;;;;;31.23;25.60;;;;;;;12.74;100.00;101881.34;5040358;28;20028;-69
2023/10/10 00:55:39;;;;;;;28.00;23.88;;;;;;;12.65;100.00;101888.81;5042500;28;20131;-69
2023/10/10 00:58:07;;;;;;;26.83;23.60;;;;;;;12.64;100.00;101883.56;5041793;28;20267;-71
2023/10/10 01:00:35;;;;;;;26.67;23.92;;;;;;;12.62;100.00;101886.31;5036361;28;20024;-69
2023/10/10 01:03:07;;;;;;;27.02;24.15;;;;;;;12.61;100.00;101875.69;5040940;28;20025;-70
2023/10/10 01:05:43;;;;;;;29.40;26.23;;;;;;;12.54;100.00;101877.75;5037387;28;20029;-70
2023/10/10 01:08:09;;;;;;;33.35;26.80;;;;;;;12.53;100.00;101869.78;5042114;28;20025;-70
2023/10/10 01:10:47;;;;;;;29.20;25.00;;;;;;;12.50;100.00;101875.25;5042398;28;20036;-70
2023/10/10 01:13:13;;;;;;;31.00;26.52;;;;;;;12.46;100.00;101862.06;5043356;28;20017;-71
2023/10/10 01:15:43;;;;;;;30.92;27.05;;;;;;;12.46;100.00;101867.41;5043044;28;20040;-71
2023/10/10 01:18:13;;;;;;;31.33;27.42;;;;;;;12.44;100.00;101868.38;5043343;28;20029;-70
2023/10/10 01:20:45;;;;;;;33.40;28.95;;;;;;;12.42;100.00;101852.44;5034511;28;20044;-71
2023/10/10 01:23:13;;;;;;;32.47;27.23;;;;;;;12.41;100.00;101857.81;5042502;28;20025;-71
2023/10/10 01:28:13;;;;;;;32.40;26.70;;;;;;;12.42;100.00;101856.91;5044319;28;20402;-71
2023/10/10 01:30:57;;;;;;;31.15;27.08;;;;;;;12.37;100.00;101856.22;5038809;28;20032;-70
2023/10/10 01:35:56;;;;;;;;;;;;;;;12.45;100.00;101849.63;5039757;28;20033;-71
2023/10/10 01:38:27;;;;;;;34.85;28.58;;;;;;;12.38;100.00;101844.63;5040671;28;19932;-71
2023/10/10 01:40:54;;;;;;;31.75;28.35;;;;;;;12.36;100.00;101844.69;5049342;28;20049;-72
2023/10/10 01:43:20;;;;;;;34.05;29.15;;;;;;;12.28;100.00;101835.25;5049213;28;20651;-71
2023/10/10 01:46:00;;;;;;;30.08;26.85;;;;;;;12.26;100.00;101834.47;5039957;28;22138;-71
2023/10/10 01:48:25;;;;;;;34.05;29.55;;;;;;;12.29;100.00;101840.56;5043140;28;20589;-69
2023/10/10 01:50:50;;;;;;;30.65;27.02;;;;;;;12.31;100.00;101837.81;5044507;28;20191;-70
2023/10/10 01:53:16;;;;;;;29.85;26.48;;;;;;;12.29;100.00;101832.53;5043581;28;20024;-70
2023/10/10 01:55:41;;;;;;;31.38;26.75;;;;;;;12.29;100.00;101832.53;5050431;28;20021;-71
2023/10/10 01:58:11;;;;;;;34.08;28.48;;;;;;;12.29;100.00;101827.19;5057748;28;20029;-70
2023/10/10 02:00:37;;;;;;;33.25;28.50;;;;;;;12.21;100.00;101823.97;5051019;28;20274;-71
2023/10/10 02:03:03;;;;;;;34.08;27.35;;;;;;;12.16;100.00;101820.63;5056777;28;20021;-71
2023/10/10 02:08:03;;;;;;;33.28;27.17;;;;;;;12.11;100.00;101809.28;5049525;28;20078;-71
2023/10/10 02:10:32;;;;;;;33.13;28.10;;;;;;;12.11;100.00;101809.28;5042992;28;20055;-69
2023/10/10 02:12:59;;;;;;;31.67;28.05;;;;;;;12.06;100.00;101803.28;5040492;28;20059;-70
2023/10/10 02:15:32;;;;;;;34.60;28.42;;;;;;;12.04;100.00;101816.69;5039501;28;20971;-71
2023/10/10 02:18:04;;;;;;;32.42;28.83;;;;;;;12.04;100.00;101805.13;5038519;28;20032;-70
2023/10/10 02:25:45;;;;;;;37.13;30.05;;;;;;;11.99;100.00;101794.63;5040375;28;20040;-71
2023/10/10 02:30:45;;;;;;;33.45;29.52;;;;;;;11.93;100.00;101792.25;5039881;28;20545;-71
2023/10/10 02:33:25;;;;;;;33.72;29.25;;;;;;;11.93;100.00;101795.78;5037245;28;20024;-71
2023/10/10 02:35:56;;;;;;;36.35;30.80;;;;;;;11.93;100.00;101793.09;5037424;28;20029;-71
2023/10/10 02:38:31;;;;;;;33.45;29.73;;;;;;;11.90;100.00;101790.56;5038011;28;20074;-70
2023/10/10 02:41:21;;;;;;;35.88;30.88;;;;;;;11.89;100.00;101786.16;5038978;28;20051;-70
2023/10/10 02:43:56;;;;;;;36.63;32.63;;;;;;;11.90;100.00;101790.56;5040056;28;20112;-68
2023/10/10 02:46:36;;;;;;;38.60;33.38;;;;;;;11.89;100.00;101780.81;5039973;28;20095;-69
2023/10/10 02:49:12;;;;;;;37.40;33.35;;;;;;;11.91;100.00;101783.41;5039165;28;20029;-70
2023/10/10 02:51:43;;;;;;;38.20;32.88;;;;;;;11.89;100.00;101786.16;5037606;28;20271;-69
2023/10/10 02:54:21;;;;;;;37.95;33.90;;;;;;;11.89;100.00;101790.63;5039172;28;20262;-71
2023/10/10 02:56:49;;;;;;;38.78;34.38;;;;;;;11.89;100.00;101788.81;5037180;28;20179;-69
2023/10/10 02:59:24;;;;;;;42.67;35.13;;;;;;;11.86;100.00;101783.59;5037033;28;20036;-70
2023/10/10 03:01:56;;;;;;;42.45;37.83;;;;;;;11.86;100.00;101780.94;5038273;28;20025;-70
2023/10/10 03:04:23;;;;;;;45.15;39.17;;;;;;;11.87;100.00;101781.81;5035190;28;20082;-68
2023/10/10 03:06:48;;;;;;;45.10;39.63;;;;;;;11.84;100.00;101787.28;5033798;28;20462;-71
2023/10/10 03:12:05;;;;;;;49.50;41.75;;;;;;;11.88;100.00;101788.91;5036187;28;20044;-70
2023/10/10 03:14:33;;;;;;;53.50;43.95;;;;;;;11.89;100.00;101786.16;5038348;28;20535;-70
2023/10/10 03:17:03;;;;;;;46.50;41.28;;;;;;;11.89;100.00;101783.50;5037691;28;20059;-71
2023/10/10 03:19:38;;;;;;;56.58;44.35;;;;;;;11.91;100.00;101789.66;5036702;28;20145;-71
2023/10/10 03:25:04;;;;;;;51.20;43.15;;;;;;;11.93;100.00;101776.22;5038897;28;20087;-71
2023/10/10 03:27:50;;;;;;;51.75;42.67;;;;;;;11.92;100.00;101790.50;5042355;28;20131;-71
2023/10/10 03:33:16;;;;;;;49.33;42.15;;;;;;;11.94;100.00;101780.63;5013582;28;20578;-71
2023/10/10 03:36:07;;;;;;;47.75;41.28;;;;;;;11.91;100.00;101778.97;5014704;28;20033;-70
2023/10/10 05:25:10;;;;;;;34.20;30.02;;;;;;;11.32;100.00;101731.56;5032005;28;20405;-70
2023/10/10 05:27:41;;;;;;;36.75;30.65;;;;;;;11.27;100.00;101727.34;5036058;28;20029;-69
2023/10/10 05:30:07;;;;;;;33.90;30.02;;;;;;;11.22;100.00;101732.84;5041702;28;20029;-70
2023/10/10 05:32:33;;;;;;;34.50;30.85;;;;;;;11.23;100.00;101727.47;5041113;28;20029;-69
2023/10/10 05:34:58;;;;;;;32.58;29.20;;;;;;;11.19;100.00;101738.31;5036254;28;20115;-68
2023/10/10 05:37:25;;;;;;;33.80;30.10;;;;;;;11.18;100.00;101733.91;5035821;28;20083;-70
2023/10/10 05:39:56;;;;;;;31.90;28.48;;;;;;;11.13;100.00;101741.22;5029758;28;20028;-69
2023/10/10 05:42:26;;;;;;;32.30;27.42;;;;;;;11.11;100.00;101735.94;5035881;28;20045;-70
2023/10/10 05:44:52;;;;;;;30.48;27.35;;;;;;;11.11;100.00;101727.06;5036182;28;20071;-70
2023/10/10 05:47:18;;;;;;;31.40;27.13;;;;;;;11.11;100.00;101730.59;5039698;28;20063;-69
2023/10/10 05:49:43;;;;;;;32.28;27.63;;;;;;;11.09;100.00;101728.94;5037185;28;20115;-69
2023/10/10 05:52:09;;;;;;;31.83;27.50;;;;;;;11.07;100.00;101718.31;5041191;28;20059;-70
2023/10/10 05:54:35;;;;;;;31.45;27.00;;;;;;;11.04;100.00;101720.28;5037433;28;20127;-70
2023/10/10 05:57:01;;;;;;;30.70;26.95;;;;;;;11.05;100.00;101730.84;5030758;28;20033;-70
2023/10/10 05:59:28;;;;;;;29.30;25.65;;;;;;;11.04;100.00;101734.44;5041402;28;20033;-69
2023/10/10 06:01:54;;;;;;;30.08;25.17;;;;;;;11.02;100.00;101725.63;5038448;28;20542;-69
2023/10/10 06:04:19;;;;;;;33.22;26.42;;;;;;;11.03;100.00;101739.81;5037119;28;20033;-69
2023/10/10 06:06:46;;;;;;;27.75;24.02;;;;;;;11.08;100.00;101732.53;5034585;28;20061;-70
2023/10/10 06:09:18;;;;;;;29.05;24.42;;;;;;;11.07;100.00;101730.78;5036679;28;20108;-70
2023/10/10 06:11:44;;;;;;;31.55;25.90;;;;;;;11.11;100.00;101732.41;5036972;28;20075;-68
2023/10/10 06:14:11;;;;;;;27.13;24.23;;;;;;;11.11;100.00;101719.06;5025235;28;20044;-68
2023/10/10 06:16:37;;;;;;;26.92;23.50;;;;;;;11.17;100.00;101716.19;5028511;28;20482;-69
2023/10/10 06:19:03;;;;;;;30.00;24.00;;;;;;;11.16;100.00;101715.31;5036227;28;20033;-68
2023/10/10 06:21:29;;;;;;;28.48;23.77;;;;;;;11.19;100.00;101724.97;5039181;28;20021;-69
2023/10/10 06:23:55;;;;;;;26.58;22.90;;;;;;;11.22;100.00;101719.53;5038797;28;20155;-69
2023/10/10 06:26:21;;;;;;;28.73;23.70;;;;;;;11.24;100.00;101725.66;5035069;28;20033;-70
2023/10/10 06:28:51;;;;;;;27.45;22.85;;;;;;;11.21;100.00;101724.00;5041782;28;20059;-69
2023/10/10 06:31:19;;;;;;;27.17;22.13;;;;;;;11.23;100.00;101722.13;5033164;28;20124;-68
2023/10/10 06:33:49;;;;;;;25.23;21.65;;;;;;;11.26;100.00;101714.94;5038785;28;20075;-69
2023/10/10 06:38:59;;;;;;;22.85;20.35;;;;;;;11.31;100.00;101713.81;5039441;28;20123;-69
2023/10/10 06:41:30;;;;;;;24.42;21.05;;;;;;;11.36;100.00;101717.16;5034942;28;20049;-69
2023/10/10 06:43:57;;;;;;;25.25;19.90;;;;;;;11.43;100.00;101720.47;5038516;28;20053;-69
2023/10/10 06:46:23;;;;;;;23.65;20.15;;;;;;;11.49;100.00;101725.53;5034826;28;20033;-69
2023/10/10 06:48:50;;;;;;;25.23;20.77;;;;;;;11.50;100.00;101713.97;5033968;28;20036;-69
2023/10/10 06:51:21;;;;;;;23.27;20.77;;;;;;;11.63;100.00;101715.19;5040417;28;20250;-71
2023/10/10 06:53:48;;;;;;;24.08;19.95;;;;;;;11.69;100.00;101714.94;5041193;28;20071;-70
2023/10/10 06:56:17;;;;;;;25.20;19.88;;;;;;;11.76;100.00;101720.03;5040975;28;20510;-69
2023/10/10 06:58:44;;;;;;;23.90;19.40;;;;;;;11.83;100.00;101713.50;5035505;28;20025;-69
2023/10/10 07:01:18;;;;;;;23.58;18.65;;;;;;;11.84;100.00;101713.47;5045457;28;20076;-69
2023/10/10 07:03:46;;;;;;;20.75;18.52;;;;;;;11.91;100.00;101716.72;5042311;28;20039;-70
2023/10/10 07:06:18;;;;;;;22.80;19.05;;;;;;;11.97;100.00;101721.81;5042566;28;20025;-70
2023/10/10 07:08:46;;;;;;;24.02;18.73;;;;;;;12.05;100.00;101726.81;5044629;28;20067;-70
2023/10/10 07:11:20;;;;;;;24.15;19.48;;;;;;;12.11;100.00;101718.53;5045896;28;20025;-70
2023/10/10 07:13:45;;;;;;;22.05;18.13;;;;;;;12.20;100.00;101723.47;5035635;28;20036;-69
2023/10/10 07:16:11;;;;;;;24.55;18.83;;;;;;;12.25;100.00;101724.16;5045806;28;20028;-70
2023/10/10 07:18:40;;;;;;;26.60;18.15;;;;;;;12.29;100.00;101716.84;5058095;28;20033;-71
2023/10/10 07:21:08;;;;;;;22.63;17.60;;;;;;;12.35;100.00;101711.28;5058823;28;20048;-70
2023/10/10 07:23:38;;;;;;;20.23;17.33;;;;;;;12.38;100.00;101708.47;5043260;28;20021;-70
2023/10/10 07:26:19;;;;;;;22.63;18.08;;;;;;;12.50;100.00;101705.25;5054388;28;20033;-70
2023/10/10 07:28:48;;;;;;;23.60;17.13;;;;;;;12.57;100.00;101704.00;5051564;28;20573;-70
2023/10/10 07:31:18;;;;;;;23.13;17.10;;;;;;;12.63;100.00;101708.22;5047911;28;20033;-70
2023/10/10 07:33:53;;;;;;;20.13;17.77;;;;;;;12.67;100.00;101707.16;5042817;28;20025;-70
2023/10/10 07:36:24;;;;;;;20.58;16.63;;;;;;;12.81;100.00;101704.69;5039964;28;20055;-70
2023/10/10 07:38:54;;;;;;;19.92;16.25;;;;;;;12.83;100.00;101697.50;5046891;28;20086;-70
2023/10/10 07:41:21;;;;;;;18.77;16.17;;;;;;;12.96;100.00;101704.00;5043539;28;20080;-71
2023/10/10 07:43:49;;;;;;;23.33;17.20;;;;;;;13.05;100.00;101700.00;5044992;28;20055;-71
2023/10/10 07:46:18;;;;;;;18.05;15.93;;;;;;;13.17;100.00;101703.91;5044308;28;20024;-71
2023/10/10 07:48:46;;;;;;;20.17;16.17;;;;;;;13.24;100.00;101702.69;5067216;28;20021;-70
2023/10/10 07:51:16;;;;;;;18.85;16.00;;;;;;;13.32;100.00;101700.50;5044413;28;20114;-70
2023/10/10 07:53:44;;;;;;;19.60;16.90;;;;;;;13.37;100.00;101694.94;5042732;28;20013;-71
2023/10/10 07:56:10;;;;;;;21.08;15.73;;;;;;;13.40;100.00;101690.31;5038053;28;20474;-70
2023/10/10 07:58:45;;;;;;;22.50;16.02;;;;;;;13.45;100.00;101690.94;5039368;28;20036;-71
2023/10/10 08:01:16;;;;;;;17.45;14.18;;;;;;;13.52;100.00;101690.66;5037576;28;20094;-71
2023/10/10 08:03:46;;;;;;;22.25;14.70;;;;;;;13.59;100.00;101695.63;5041615;28;20021;-70
2023/10/10 08:06:16;;;;;;;16.35;13.95;;;;;;;13.63;100.00;101691.88;5045571;28;20098;-70
2023/10/10 08:08:42;;;;;;;17.33;13.88;;;;;;;13.68;100.00;101681.78;5039848;28;20039;-71
2023/10/10 08:11:12;;;;;;;18.55;13.82;;;;;;;13.79;100.00;101693.75;5038342;28;20510;-71
2023/10/10 08:13:48;;;;;;;15.50;12.63;;;;;;;13.89;100.00;101695.88;5038909;28;20105;-71
2023/10/10 08:16:29;;;;;;;16.70;13.23;;;;;;;14.06;100.00;101702.19;5032839;28;20040;-71
2023/10/10 08:18:55;;;;;;;14.15;12.68;;;;;;;14.21;100.00;101698.69;5038695;28;20321;-71
2023/10/10 08:21:23;;;;;;;16.85;12.57;;;;;;;14.33;100.00;101695.38;5034174;28;20123;-70
2023/10/10 08:23:56;;;;;;;17.20;12.70;;;;;;;14.50;100.00;101693.63;5033864;28;20033;-70
2023/10/10 08:26:29;;;;;;;15.85;12.73;;;;;;;14.72;100.00;101696.91;5044532;28;20029;-70
2023/10/10 08:28:55;;;;;;;16.35;11.77;;;;;;;14.89;100.00;101691.47;5042608;28;20029;-69
2023/10/10 08:31:22;;;;;;;19.15;11.93;;;;;;;14.88;100.00;101692.44;5043599;28;20021;-72
2023/10/10 08:33:48;;;;;;;13.57;11.00;;;;;;;15.00;100.00;101695.34;5040993;28;20495;-69
2023/10/10 08:36:23;;;;;;;14.70;10.90;;;;;;;15.09;100.00;101694.84;5036954;28;20025;-70
2023/10/10 08:38:56;;;;;;;16.83;11.27;;;;;;;15.12;100.00;101692.84;5044589;28;20139;-70
2023/10/10 08:41:29;;;;;;;17.48;11.52;;;;;;;15.19;100.00;101699.59;5042196;28;20268;-69
2023/10/10 08:43:58;;;;;;;15.73;11.27;;;;;;;15.35;100.00;101704.97;5043685;28;20487;-70
2023/10/10 08:46:40;;;;;;;13.02;10.27;;;;;;;15.53;100.00;101702.19;5044300;28;20032;-69
2023/10/10 08:49:07;;;;;;;15.02;11.15;;;;;;;15.68;97.93;101699.50;5041243;28;20035;-69
2023/10/10 08:51:34;;;;;;;14.20;11.18;;;;;;;15.97;97.02;101712.13;5044018;28;20072;-68
2023/10/10 08:54:09;;;;;;;14.68;11.23;;;;;;;16.14;93.17;101718.25;5044288;28;20102;-69
2023/10/10 08:56:42;;;;;;;12.13;10.80;;;;;;;16.47;93.89;101716.25;5040818;28;20132;-69
2023/10/10 08:59:11;;;;;;;13.15;10.50;;;;;;;17.08;89.96;101712.44;5042771;28;20048;-70
2023/10/10 09:01:37;;;;;;;13.30;10.63;;;;;;;17.57;86.81;101703.84;5039180;28;20024;-70
2023/10/10 09:04:04;;;;;;;14.93;11.38;;;;;;;17.84;83.54;101706.53;5041253;28;20029;-70
2023/10/10 09:09:39;;;;;;;12.40;10.18;;;;;;;18.35;81.12;101696.72;5040579;28;20036;-69
2023/10/10 09:12:14;;;;;;;13.73;11.25;;;;;;;18.84;78.87;101709.41;5039060;28;20124;-70
2023/10/10 09:14:51;;;;;;;14.18;10.40;;;;;;;19.37;76.31;101707.34;5044803;28;20029;-69
2023/10/10 09:17:32;;;;;;;14.82;11.18;;;;;;;19.75;75.10;101702.78;5042686;28;20538;-70
2023/10/10 09:19:58;;;;;;;14.63;10.60;;;;;;;20.25;70.81;101708.84;5040427;28;20483;-70
2023/10/10 09:22:29;;;;;;;15.57;11.13;;;;;;;20.50;69.12;101710.50;5039573;28;20493;-68
2023/10/10 09:24:59;;;;;;;13.32;11.13;;;;;;;20.71;65.96;101700.69;5038044;28;20025;-68
2023/10/10 09:27:28;;;;;;;15.75;10.13;;;;;;;21.22;65.82;101696.56;5041092;28;20175;-70
2023/10/10 09:29:56;;;;;;;16.20;11.60;;;;;;;21.24;63.72;101700.88;5037004;28;20018;-69
2023/10/10 09:32:42;;;;;;;13.35;10.60;;;;;;;21.55;65.83;101699.22;5041338;28;20032;-69
2023/10/10 09:35:08;;;;;;;14.27;10.50;;;;;;;21.78;62.67;101689.16;5039318;28;20094;-70
2023/10/10 09:37:38;;;;;;;13.18;10.90;;;;;;;21.97;62.22;101695.69;5040919;28;20029;-70
2023/10/10 09:40:07;;;;;;;14.23;10.57;;;;;;;22.28;60.44;101697.53;5042331;28;20024;-69
2023/10/10 09:43:03;;;;;;;13.30;10.25;;;;;;;22.56;62.35;101709.53;5042020;28;20159;-70
2023/10/10 09:48:28;;;;;;;13.48;10.40;;;;;;;23.38;57.14;101713.13;5042670;28;20044;-69
2023/10/10 09:51:30;;;;;;;13.20;9.50;;;;;;;24.41;55.29;101709.84;5039190;28;20526;-69
2023/10/10 09:54:11;;;;;;;17.17;9.23;;;;;;;25.39;50.86;101706.56;5035462;28;20112;-69
2023/10/10 09:56:37;;;;;;;11.02;9.20;;;;;;;25.97;49.47;101702.56;5039095;28;20025;-68
2023/10/10 09:59:07;;;;;;;11.07;9.30;;;;;;;26.07;47.90;101701.44;5040142;28;20483;-68
2023/10/10 10:01:44;;;;;;;12.88;8.20;;;;;;;26.18;46.90;101703.06;5040636;28;20456;-70
2023/10/10 10:04:18;;;;;;;11.55;8.13;;;;;;;26.46;46.26;101706.53;5041314;28;20114;-69
2023/10/10 10:07:12;;;;;;;11.68;8.13;;;;;;;27.33;47.96;101711.91;5040562;28;20194;-69
2023/10/10 10:09:52;;;;;;;9.57;7.50;;;;;;;28.00;45.56;101708.06;5038467;28;20048;-69
2023/10/10 10:12:45;;;;;;;10.98;7.95;;;;;;;28.51;45.49;101711.50;5041037;28;20102;-67
2023/10/10 10:15:16;;;;;;;11.55;7.72;;;;;;;28.74;40.60;101700.63;5042824;28;20035;-69
2023/10/10 10:18:13;;;;;;;11.63;7.80;;;;;;;29.54;40.87;101699.56;5042374;28;20021;-70
2023/10/10 10:23:25;;;;;;;9.82;7.65;;;;;;;29.83;38.17;101706.25;5041681;28;20435;-70
2023/10/10 10:26:42;;;;;;;10.48;7.22;;;;;;;30.09;37.92;101703.09;5032403;28;20036;-71
2023/10/10 10:28:56;;;;;;;7.72;6.68;;;;;;;30.29;35.96;101701.56;5040034;28;20490;-70
2023/10/10 10:31:28;;;;;;;10.75;7.18;;;;;;;29.68;36.13;101698.81;5036908;28;20134;-70
2023/10/10 10:34:15;;;;;;;9.43;7.05;;;;;;;29.50;38.98;101698.22;5041391;28;20028;-70
2023/10/10 10:36:50;;;;;;;11.35;7.60;;;;;;;29.24;37.07;101696.66;5038999;28;20025;-69
2023/10/10 10:39:34;;;;;;;10.63;7.10;;;;;;;29.09;38.16;101698.44;5040274;28;20091;-70
2023/10/10 10:42:00;;;;;;;10.25;6.93;;;;;;;29.65;36.82;101696.44;5041059;28;20068;-71
2023/10/10 10:44:45;;;;;;;10.20;6.78;;;;;;;29.61;36.25;101691.50;5041182;28;20045;-69
2023/10/10 10:47:35;;;;;;;8.70;6.38;;;;;;;30.37;38.31;101686.91;5041134;28;20428;-70
2023/10/10 10:50:02;;;;;;;10.70;7.22;;;;;;;30.68;35.18;101689.44;5039830;28;20035;-70
2023/10/10 10:52:55;;;;;;;10.77;7.15;;;;;;;31.14;36.38;101687.34;5036063;28;20028;-69
2023/10/10 10:55:27;;;;;;;10.85;6.72;;;;;;;30.99;34.01;101684.63;5032918;28;20049;-69
2023/10/10 10:58:05;;;;;;;9.40;6.67;;;;;;;31.50;33.25;101689.28;5041562;28;20609;-69
2023/10/10 11:01:00;;;;;;;8.20;6.88;;;;;;;32.10;34.88;101682.44;5038227;28;20345;-70
2023/10/10 11:03:35;;;;;;;9.07;6.25;;;;;;;31.97;32.42;101680.44;5039822;28;20478;-70
2023/10/10 11:06:09;;;;;;;8.57;6.57;;;;;;;32.21;33.42;101687.41;5038568;28;20028;-70
2023/10/10 11:13:49;;;;;;;7.70;5.90;;;;;;;32.83;30.75;101679.34;5041649;28;20498;-68
2023/10/10 11:16:15;;;;;;;7.60;5.85;;;;;;;32.61;30.77;101676.69;5040265;28;20025;-70
2023/10/10 11:18:41;;;;;;;9.13;6.22;;;;;;;32.78;31.46;101665.34;5037265;28;20355;-69
2023/10/10 11:21:11;;;;;;;8.77;6.05;;;;;;;33.50;30.20;101659.25;5032693;28;20025;-70
2023/10/10 11:23:43;;;;;;;7.93;5.63;;;;;;;33.99;29.57;101658.03;5030034;28;20079;-69
2023/10/10 11:26:13;;;;;;;9.48;5.80;;;;;;;34.29;28.62;101650.13;5040684;28;20040;-71
2023/10/10 11:28:47;;;;;;;7.35;5.45;;;;;;;34.89;28.66;101658.25;5042053;28;20503;-70
2023/10/10 11:31:16;;;;;;;9.95;5.95;;;;;;;35.26;28.42;101659.38;5039671;28;20130;-70
2023/10/10 11:33:48;;;;;;;8.88;5.68;;;;;;;35.32;27.78;101652.09;5041741;28;20036;-71
2023/10/10 11:36:21;;;;;;;8.50;5.45;;;;;;;35.09;28.96;101647.97;5035092;28;20032;-70
2023/10/10 11:38:55;;;;;;;8.90;5.70;;;;;;;35.50;27.50;101646.69;5041354;28;20226;-69
2023/10/10 11:41:30;;;;;;;9.98;5.65;;;;;;;35.59;27.50;101641.72;5041165;28;20168;-69
2023/10/10 11:44:20;;;;;;;7.35;5.45;;;;;;;36.56;28.14;101647.69;5041240;28;20089;-70
2023/10/10 11:46:47;;;;;;;9.65;6.07;;;;;;;35.91;25.76;101635.06;5040763;28;20399;-70
2023/10/10 11:49:16;;;;;;;10.13;5.68;;;;;;;35.88;27.59;101629.97;5043542;28;20024;-70
2023/10/10 11:51:42;;;;;;;7.65;5.18;;;;;;;36.41;26.54;101634.16;5044531;28;20061;-70
2023/10/10 11:54:07;;;;;;;10.20;5.57;;;;;;;36.46;25.90;101636.28;5045148;28;20056;-70
2023/10/10 11:56:36;;;;;;;10.00;5.50;;;;;;;36.74;25.37;101631.00;5044927;28;20033;-70
2023/10/10 11:59:10;;;;;;;10.15;5.82;;;;;;;36.34;25.84;101631.47;5045131;28;20086;-70
2023/10/10 12:02:07;;;;;;;7.57;5.22;;;;;;;35.72;26.52;101627.78;5039888;28;20029;-69
2023/10/10 12:04:36;;;;;;;9.63;5.90;;;;;;;35.48;26.54;101618.38;5044733;28;20060;-71
2023/10/10 12:07:03;;;;;;;7.88;5.55;;;;;;;35.67;25.53;101613.75;5041543;28;20052;-71
2023/10/10 12:09:29;;;;;;;10.30;5.72;;;;;;;36.06;25.92;101614.50;5042873;28;20487;-70
2023/10/10 12:11:59;;;;;;;9.02;5.85;;;;;;;35.77;26.56;101618.78;5042884;28;20033;-71
2023/10/10 12:14:29;;;;;;;7.20;5.43;;;;;;;35.50;26.16;101609.88;5044952;28;20487;-71
2023/10/10 12:16:57;;;;;;;7.00;5.13;;;;;;;34.92;25.98;101614.41;5044201;28;20041;-69
2023/10/10 12:19:23;;;;;;;9.32;5.47;;;;;;;35.13;26.72;101604.97;5036582;28;20029;-71
2023/10/10 12:21:48;;;;;;;9.85;5.40;;;;;;;35.58;26.10;101609.59;5043119;28;20086;-70
2023/10/10 12:24:14;;;;;;;7.50;5.88;;;;;;;35.80;25.74;101596.19;5044767;28;20032;-70
2023/10/10 12:26:41;;;;;;;7.03;5.50;;;;;;;35.71;25.65;101608.63;5045113;28;20044;-70
2023/10/10 12:29:10;;;;;;;8.32;5.93;;;;;;;35.76;25.53;101609.63;5042229;28;20021;-69
2023/10/10 12:31:36;;;;;;;7.63;5.20;;;;;;;35.67;25.48;101598.00;5042837;28;20025;-70
2023/10/10 12:34:02;;;;;;;8.35;5.10;;;;;;;36.21;25.28;101595.59;5044686;28;20040;-70
2023/10/10 12:36:32;;;;;;;9.57;5.20;;;;;;;36.55;25.67;101601.63;5044388;28;20017;-70
2023/10/10 12:38:59;;;;;;;5.95;5.22;;;;;;;36.31;25.02;101595.03;5043387;28;20308;-70
2023/10/10 12:41:26;;;;;;;7.68;4.82;;;;;;;36.64;24.95;101591.91;5044973;28;20108;-69
2023/10/10 12:43:51;;;;;;;9.27;5.43;;;;;;;36.64;24.44;101595.50;5045889;28;20052;-70
2023/10/10 12:46:20;;;;;;;6.97;4.95;;;;;;;36.70;24.08;101581.78;5049873;28;20418;-70
2023/10/10 12:48:46;;;;;;;6.93;5.00;;;;;;;36.58;23.98;101588.16;5046665;28;20043;-70
2023/10/10 12:51:12;;;;;;;6.03;5.00;;;;;;;36.85;23.96;101585.84;5059472;28;20036;-70
2023/10/10 12:53:39;;;;;;;6.32;4.78;;;;;;;36.91;23.50;101578.50;5056515;28;20025;-71
2023/10/10 12:56:06;;;;;;;9.13;5.32;;;;;;;36.89;23.97;101586.22;5055725;28;20033;-71
2023/10/10 12:58:32;;;;;;;9.20;5.38;;;;;;;36.98;23.48;101576.53;5054410;28;20307;-70
2023/10/10 13:00:58;;;;;;;9.25;6.55;;;;;;;37.10;22.95;101582.97;5054536;28;20462;-69
2023/10/10 13:03:30;;;;;;;10.30;7.65;;;;;;;36.39;23.57;101580.88;5058707;28;20020;-70
2023/10/10 13:06:00;;;;;;;30.27;26.13;;;;;;;36.23;23.84;101571.25;5061587;28;20028;-69
2023/10/10 13:08:47;;;;;;;8.55;6.75;;;;;;;36.63;23.51;101573.56;5056500;28;20070;-70
2023/10/10 13:11:16;;;;;;;7.85;4.97;;;;;;;36.22;23.42;101580.66;5045375;28;20029;-70
2023/10/10 13:13:45;;;;;;;6.57;4.50;;;;;;;35.95;24.04;101574.50;5043210;28;20029;-71
2023/10/10 13:19:06;;;;;;;9.48;4.78;;;;;;;36.30;23.60;101568.41;5038971;28;20099;-70
2023/10/10 13:21:35;;;;;;;9.15;4.57;;;;;;;36.35;23.23;101574.09;5041455;28;20559;-71
2023/10/10 13:24:00;;;;;;;6.97;4.70;;;;;;;36.32;23.44;101571.78;5040865;28;20044;-70
2023/10/10 13:26:27;;;;;;;7.28;4.38;;;;;;;36.05;23.64;101569.31;5043241;28;20040;-69
2023/10/10 13:28:53;;;;;;;6.05;4.32;;;;;;;35.80;23.72;101561.03;5043091;28;20319;-71
2023/10/10 13:31:19;;;;;;;6.93;4.20;;;;;;;35.48;24.10;101568.53;5037018;28;20471;-70
2023/10/10 13:33:46;;;;;;;6.45;4.65;;;;;;;34.48;25.58;101572.94;5037923;28;20071;-69
2023/10/10 13:36:15;;;;;;;7.65;4.50;;;;;;;33.99;26.41;101568.78;5040355;28;20491;-69
2023/10/10 13:38:49;;;;;;;8.27;4.75;;;;;;;33.18;27.28;101576.16;5049989;28;20025;-70
2023/10/10 13:41:16;;;;;;;6.95;4.50;;;;;;;32.61;28.24;101571.97;5037233;28;20480;-70
2023/10/10 13:43:49;;;;;;;7.80;4.45;;;;;;;32.09;29.01;101578.00;5043323;28;20089;-70
2023/10/10 13:46:18;;;;;;;6.82;4.60;;;;;;;31.05;28.79;101561.19;5037844;28;20029;-72
2023/10/10 13:48:44;;;;;;;6.47;4.30;;;;;;;30.23;30.70;101560.38;5042430;28;20507;-70
2023/10/10 13:51:09;;;;;;;8.85;4.97;;;;;;;30.26;30.97;101556.41;5031305;28;20029;-70
2023/10/10 13:53:39;;;;;;;7.68;4.50;;;;;;;30.05;31.74;101559.00;5040463;28;20422;-70
2023/10/10 13:56:05;;;;;;;7.97;4.55;;;;;;;29.58;32.33;101560.19;5042684;28;20491;-69